createdAt,value
2019-04-28T00:01:01.687Z,9.63
2019-04-28T00:05:06.596Z,9.61
2019-04-28T00:09:11.795Z,9.61
2019-04-28T00:13:15.283Z,9.61
2019-04-28T00:17:18.788Z,9.67
2019-04-28T00:21:26.497Z,9.62
2019-04-28T00:25:31.642Z,9.62
2019-04-28T00:29:40.874Z,9.62
2019-04-28T00:33:41.007Z,9.62
2019-04-28T00:37:45.603Z,9.63
2019-04-28T00:41:49.393Z,9.68
2019-04-28T00:45:52.875Z,9.63
2019-04-28T00:49:56.359Z,9.58
2019-04-28T00:54:00.847Z,9.49
2019-04-28T00:58:04.432Z,9.51
2019-04-28T01:02:11.109Z,9.47
2019-04-28T01:06:14.706Z,9.48
2019-04-28T01:10:20.952Z,9.45
2019-04-28T01:14:24.185Z,9.43
2019-04-28T01:18:30.250Z,9.46
2019-04-28T01:22:35.147Z,9.53
2019-04-28T01:26:39.217Z,9.50
2019-04-28T01:30:45.487Z,9.46
2019-04-28T01:34:49.868Z,9.43
2019-04-28T01:38:53.808Z,9.36
2019-04-28T01:42:57.735Z,9.33
2019-04-28T01:47:01.296Z,9.30
2019-04-28T01:51:04.862Z,9.25
2019-04-28T01:55:10.099Z,9.26
2019-04-28T01:59:13.783Z,9.27
2019-04-28T02:03:17.322Z,9.26
2019-04-28T02:07:20.819Z,9.17
2019-04-28T02:11:24.672Z,9.05
2019-04-28T02:15:30.055Z,9.06
2019-04-28T02:19:33.392Z,9.03
2019-04-28T02:23:39.587Z,8.92
2019-04-28T02:27:43.125Z,8.89
2019-04-28T02:31:46.593Z,8.90
2019-04-28T02:35:51.081Z,8.94
2019-04-28T02:39:54.778Z,8.95
2019-04-28T02:44:00.845Z,8.96
2019-04-28T02:48:06.270Z,8.95
2019-04-28T02:52:20.211Z,8.94
2019-04-28T02:56:23.374Z,8.91
2019-04-28T03:00:26.848Z,8.91
2019-04-28T03:04:30.962Z,9.01
2019-04-28T03:08:34.582Z,8.95
2019-04-28T03:12:41.090Z,8.98
2019-04-28T03:16:43.900Z,8.95
2019-04-28T03:20:47.388Z,8.90
2019-04-28T03:24:52.529Z,8.96
2019-04-28T03:29:13.565Z,8.84
2019-04-28T03:33:24.462Z,8.93
2019-04-28T03:37:24.543Z,8.94
2019-04-28T03:41:30.889Z,8.90
2019-04-28T03:45:43.988Z,8.93
2019-04-28T03:49:50.277Z,8.90
2019-04-28T03:53:52.711Z,9.02
2019-04-28T03:57:56.192Z,8.88
2019-04-28T04:02:03.193Z,8.88
2019-04-28T04:06:05.454Z,8.89
2019-04-28T04:10:11.515Z,8.87
2019-04-28T04:14:21.100Z,8.87
2019-04-28T04:18:30.841Z,8.85
2019-04-28T04:22:33.830Z,8.90
2019-04-28T04:26:37.757Z,8.83
2019-04-28T04:30:41.952Z,8.88
2019-04-28T04:34:45.410Z,8.84
2019-04-28T04:38:51.362Z,8.93
2019-04-28T04:42:54.072Z,9.00
2019-04-28T04:46:57.563Z,8.86
2019-04-28T04:51:01.488Z,8.88
2019-04-28T04:55:06.440Z,8.90
2019-04-28T04:59:10.477Z,8.79
2019-04-28T05:03:21.181Z,8.78
2019-04-28T05:07:24.034Z,8.76
2019-04-28T05:11:27.579Z,8.76
2019-04-28T05:15:31.069Z,8.77
2019-04-28T05:19:34.877Z,8.69
2019-04-28T05:23:46.502Z,8.79
2019-04-28T05:27:54.476Z,8.74
2019-04-28T05:32:03.162Z,8.75
2019-04-28T05:36:05.623Z,8.71
2019-04-28T05:40:10.441Z,8.59
2019-04-28T05:44:14.521Z,8.57
2019-04-28T05:48:20.049Z,8.57
2019-04-28T05:52:41.184Z,8.61
2019-04-28T05:57:02.346Z,8.62
2019-04-28T06:01:10.380Z,8.61
2019-04-28T06:05:13.902Z,8.69
2019-04-28T06:09:20.360Z,8.68
2019-04-28T06:13:24.323Z,8.74
2019-04-28T06:17:29.491Z,8.70
2019-04-28T06:21:33.141Z,8.79
2019-04-28T06:25:36.637Z,8.77
2019-04-28T06:29:40.132Z,8.83
2019-04-28T06:33:44.587Z,8.70
2019-04-28T06:37:48.228Z,8.78
2019-04-28T06:41:51.709Z,8.78
2019-04-28T06:45:55.476Z,8.86
2019-04-28T06:49:58.969Z,8.92
2019-04-28T06:54:03.333Z,8.89
2019-04-28T06:58:06.817Z,8.95
2019-04-28T07:02:10.343Z,8.81
2019-04-28T07:06:13.849Z,8.85
2019-04-28T07:10:17.347Z,9.01
2019-04-28T07:14:20.816Z,9.06
2019-04-28T07:18:24.298Z,9.12
2019-04-28T07:22:29.766Z,9.39
2019-04-28T07:26:33.422Z,9.34
2019-04-28T07:30:38.983Z,9.33
2019-04-28T07:34:42.449Z,9.43
2019-04-28T07:38:46.229Z,9.54
2019-04-28T07:42:49.711Z,9.58
2019-04-28T07:46:53.198Z,9.57
2019-04-28T07:50:56.686Z,9.57
2019-04-28T07:55:00.611Z,9.74
2019-04-28T07:59:04.087Z,9.85
2019-04-28T08:03:07.551Z,9.88
2019-04-28T08:07:11.135Z,9.94
2019-04-28T08:11:14.617Z,10.15
2019-04-28T08:15:18.481Z,9.99
2019-04-28T08:19:22.272Z,10.07
2019-04-28T08:23:26.113Z,10.01
2019-04-28T08:27:29.890Z,9.95
2019-04-28T08:31:53.097Z,9.89
2019-04-28T08:35:56.664Z,9.88
2019-04-28T08:40:00.470Z,9.88
2019-04-28T08:44:03.985Z,9.65
2019-04-28T08:48:07.664Z,9.54
2019-04-28T08:52:11.424Z,9.76
2019-04-28T08:56:14.915Z,9.84
2019-04-28T09:00:19.256Z,9.90
2019-04-28T09:04:22.732Z,9.94
2019-04-28T09:08:26.207Z,9.93
2019-04-28T09:12:30.165Z,9.99
2019-04-28T09:16:33.660Z,10.44
2019-04-28T09:20:37.141Z,10.95
2019-04-28T09:24:40.632Z,11.34
2019-04-28T09:28:44.199Z,11.65
2019-04-28T09:32:47.689Z,12.23
2019-04-28T09:36:51.212Z,12.39
2019-04-28T09:40:54.692Z,13.58
2019-04-28T09:45:01.644Z,15.17
2019-04-28T09:49:05.658Z,16.62
2019-04-28T09:53:11.292Z,15.74
2019-04-28T09:57:14.801Z,16.06
2019-04-28T10:01:18.294Z,14.67
2019-04-28T10:05:22.260Z,15.87
2019-04-28T10:09:26.085Z,14.11
2019-04-28T10:13:29.585Z,14.01
2019-04-28T10:17:33.073Z,17.65
2019-04-28T10:21:36.545Z,18.07
2019-04-28T10:25:40.434Z,19.02
2019-04-28T10:29:43.933Z,15.89
2019-04-28T10:33:49.496Z,15.93
2019-04-28T10:37:53.217Z,18.49
2019-04-28T10:41:56.716Z,20.09
2019-04-28T10:46:00.608Z,19.55
2019-04-28T10:50:04.952Z,19.32
2019-04-28T10:54:08.724Z,18.74
2019-04-28T10:58:12.396Z,19.53
2019-04-28T11:02:16.237Z,21.23
2019-04-28T11:06:20.238Z,17.97
2019-04-28T11:10:24.087Z,18.21
2019-04-28T11:14:28.119Z,17.82
2019-04-28T11:18:31.611Z,18.99
2019-04-28T11:22:35.280Z,17.62
2019-04-28T11:26:38.860Z,17.17
2019-04-28T11:30:42.485Z,15.29
2019-04-28T11:35:04.550Z,15.98
2019-04-28T11:39:10.058Z,16.87
2019-04-28T11:43:13.561Z,17.04
2019-04-28T11:47:18.854Z,16.36
2019-04-28T11:51:22.347Z,15.78
2019-04-28T11:55:25.905Z,15.99
2019-04-28T11:59:29.814Z,15.31
2019-04-28T12:03:33.589Z,15.77
2019-04-28T12:07:37.142Z,15.90
2019-04-28T12:11:42.564Z,15.33
2019-04-28T12:15:50.382Z,15.15
2019-04-28T12:19:55.843Z,14.81
2019-04-28T12:23:59.697Z,14.88
2019-04-28T12:28:04.326Z,14.71
2019-04-28T12:32:07.837Z,15.18
2019-04-28T12:36:12.176Z,15.35
2019-04-28T12:40:16.192Z,15.04
2019-04-28T12:44:20.098Z,14.97
2019-04-28T12:48:23.897Z,15.27
2019-04-28T12:52:27.497Z,14.99
2019-04-28T12:56:31.336Z,15.70
2019-04-28T13:00:42.527Z,15.23
2019-04-28T13:04:47.961Z,14.80
2019-04-28T13:08:51.445Z,15.25
2019-04-28T13:12:55.036Z,15.43
2019-04-28T13:16:58.535Z,15.89
2019-04-28T13:21:02.031Z,16.64
2019-04-28T13:25:06.886Z,16.26
2019-04-28T13:29:10.687Z,15.46
2019-04-28T13:33:14.178Z,15.52
2019-04-28T13:37:17.787Z,15.11
2019-04-28T13:41:21.279Z,15.99
2019-04-28T13:45:28.442Z,15.44
2019-04-28T13:49:33.854Z,15.27
2019-04-28T13:53:42.411Z,14.73
2019-04-28T13:57:58.583Z,14.90
2019-04-28T14:02:09.849Z,15.10
2019-04-28T14:06:27.200Z,15.52
2019-04-28T14:10:20.204Z,15.00
2019-04-28T14:14:23.804Z,14.66
2019-04-28T14:18:27.291Z,14.10
2019-04-28T14:22:30.901Z,15.03
2019-04-28T14:26:34.492Z,15.89
2019-04-28T14:30:38.028Z,14.77
2019-04-28T14:34:41.720Z,14.96
2019-04-28T14:38:45.554Z,14.86
2019-04-28T14:42:49.929Z,14.99
2019-04-28T14:46:53.780Z,15.91
2019-04-28T14:50:57.271Z,15.61
2019-04-28T14:55:01.107Z,15.40
2019-04-28T14:59:05.080Z,14.35
2019-04-28T15:03:10.309Z,14.84
2019-04-28T15:07:31.801Z,15.45
2019-04-28T15:11:42.982Z,15.16
2019-04-28T15:15:45.810Z,15.11
2019-04-28T15:19:49.089Z,14.99
2019-04-28T15:23:53.074Z,14.42
2019-04-28T15:27:56.942Z,14.77
2019-04-28T15:32:00.422Z,14.75
2019-04-28T15:36:04.141Z,14.80
2019-04-28T15:40:08.111Z,14.52
2019-04-28T15:44:11.645Z,14.69
2019-04-28T15:48:15.108Z,14.38
2019-04-28T15:52:19.036Z,14.05
2019-04-28T15:56:26.874Z,13.76
2019-04-28T16:00:30.660Z,13.88
2019-04-28T16:04:34.259Z,14.49
2019-04-28T16:08:37.765Z,14.14
2019-04-28T16:12:41.617Z,14.21
2019-04-28T16:16:45.312Z,13.83
2019-04-28T16:20:49.080Z,14.06
2019-04-28T16:24:52.635Z,13.82
2019-04-28T16:28:56.637Z,14.24
2019-04-28T16:33:00.121Z,14.15
2019-04-28T16:37:03.611Z,14.08
2019-04-28T16:41:07.094Z,13.86
2019-04-28T16:45:10.837Z,13.52
2019-04-28T16:49:14.328Z,13.36
2019-04-28T16:53:17.833Z,13.31
2019-04-28T16:57:28.657Z,13.19
2019-04-28T17:01:49.875Z,13.46
2019-04-28T17:05:53.414Z,13.38
2019-04-28T17:09:56.918Z,13.06
2019-04-28T17:14:00.419Z,12.82
2019-04-28T17:18:03.980Z,12.53
2019-04-28T17:22:07.597Z,12.53
2019-04-28T17:26:11.670Z,12.42
2019-04-28T17:30:15.502Z,12.38
2019-04-28T17:34:19.289Z,12.37
2019-04-28T17:38:22.778Z,12.35
2019-04-28T17:42:26.372Z,12.40
2019-04-28T17:46:30.233Z,12.60
2019-04-28T17:50:35.379Z,12.71
2019-04-28T17:54:39.199Z,12.77
2019-04-28T17:58:43.101Z,12.64
2019-04-28T18:03:00.377Z,12.43
2019-04-28T18:07:11.152Z,12.26
2019-04-28T18:11:15.045Z,12.08
2019-04-28T18:15:32.594Z,12.06
2019-04-28T18:19:36.825Z,12.03
2019-04-28T18:23:41.247Z,11.81
2019-04-28T18:27:44.800Z,11.61
2019-04-28T18:31:58.997Z,11.39
2019-04-28T18:36:04.119Z,11.20
2019-04-28T18:40:09.681Z,10.98
2019-04-28T18:44:14.838Z,10.81
2019-04-28T18:48:18.348Z,10.67
2019-04-28T18:52:21.794Z,10.54
2019-04-28T18:56:25.325Z,10.45
2019-04-28T19:00:30.464Z,10.30
2019-04-28T19:04:34.331Z,10.26
2019-04-28T19:08:48.855Z,10.15
2019-04-28T19:12:46.702Z,10.08
2019-04-28T19:17:07.213Z,10.05
2019-04-28T19:21:10.711Z,9.98
2019-04-28T19:25:14.598Z,9.80
2019-04-28T19:29:18.183Z,9.75
2019-04-28T19:33:21.725Z,9.61
2019-04-28T19:37:26.752Z,9.50
2019-04-28T19:41:30.576Z,9.46
2019-04-28T19:45:35.702Z,9.35
2019-04-28T19:49:39.210Z,9.29
2019-04-28T19:53:42.718Z,9.28
2019-04-28T19:57:53.687Z,9.19
2019-04-28T20:01:57.192Z,9.15
2019-04-28T20:06:00.667Z,9.03
2019-04-28T20:10:08.486Z,8.85
2019-04-28T20:14:12.064Z,8.90
2019-04-28T20:18:16.107Z,8.82
2019-04-28T20:22:20.510Z,8.87
2019-04-28T20:26:24.151Z,8.79
2019-04-28T20:30:28.061Z,8.66
2019-04-28T20:34:34.203Z,8.65
2019-04-28T20:38:37.678Z,8.72
2019-04-28T20:48:04.771Z,8.76
2019-04-28T20:52:08.247Z,8.52
2019-04-28T20:56:11.706Z,8.42
2019-04-28T21:00:15.423Z,8.32
2019-04-28T21:04:19.246Z,8.25
2019-04-28T21:08:22.688Z,8.29
2019-04-28T21:12:26.180Z,8.28
2019-04-28T21:16:29.665Z,8.04
2019-04-28T21:20:33.235Z,7.77
2019-04-28T21:24:36.706Z,7.66
2019-04-28T21:28:40.163Z,7.65
2019-04-28T21:32:43.672Z,7.63
2019-04-28T21:36:47.146Z,7.80
2019-04-28T21:40:50.638Z,7.94
2019-04-28T21:45:14.280Z,7.80
2019-04-28T21:49:19.753Z,7.78
2019-04-28T21:53:23.230Z,7.85
2019-04-28T21:57:27.080Z,8.09
2019-04-28T22:01:30.922Z,8.09
2019-04-28T22:05:34.728Z,7.96
2019-04-28T22:09:38.533Z,8.03
2019-04-28T22:13:42.028Z,8.08
2019-04-28T22:17:45.500Z,8.26
2019-04-28T22:21:48.978Z,8.20
2019-04-28T22:25:52.450Z,8.18
2019-04-28T22:29:55.918Z,8.06
2019-04-28T22:33:59.894Z,8.12
2019-04-28T22:38:03.337Z,8.14
2019-04-28T22:42:06.854Z,8.13
2019-04-28T22:46:10.658Z,8.16
2019-04-28T22:50:40.289Z,8.14
2019-04-28T22:54:51.156Z,8.14
2019-04-28T22:58:58.937Z,8.12
2019-04-28T23:03:02.490Z,8.06
2019-04-28T23:07:06.410Z,8.01
2019-04-28T23:11:10.231Z,7.99
2019-04-28T23:15:14.115Z,7.99
2019-04-28T23:19:19.357Z,7.99
2019-04-28T23:23:23.227Z,8.05
2019-04-28T23:27:26.736Z,8.12
2019-04-28T23:31:30.214Z,8.13
2019-04-28T23:35:33.692Z,8.09
2019-04-28T23:39:37.346Z,8.20
2019-04-28T23:43:40.828Z,8.20
2019-04-28T23:47:44.695Z,8.15
2019-04-28T23:51:56.366Z,8.06
2019-04-28T23:55:59.831Z,8.09
